Angels Camp, CA

11:26 PM PDT on October 01, 2014 (GMT -0700)
Angels Camp Hills | Change Station
CLOSE
Current Station
Personal Weather Station
Location: Angels Camp, CA
Elevation: 1545 ft
Nearby Weather Stations

Elev 1545 ft 38.07 °N, 120.54 °W | Updated 18 seconds ago

Clear
Clear
63.0 °F
Feels Like 63.0 °F
N
0.0
Wind Variable Wind from WSW
Gusts 1.0 mph

Today
High -- | Low -- °F
--% Chance of Precip.
Yesterday
High -- | Low -- °F
Precip. -- in
6:58 AM 6:45 PM
First Quarter, 55% visible
Pressure 29.99 in
Visibility 10.0 miles
Clouds Clear
Dew Point 40 °F
Humidity 43%
Rainfall 0.00 in
Snow Depth 1 in , 0 in , 2 in
UV 0 out of 12
Pollen 6.40 out of 12
Ozone Good
Flu Activity Not available.
METAR KO22 020615Z AUTO 04003KT 10SM CLR 12/04 A2999 RMK AO1

More Conditions Fewer Conditions

Pressure 29.99 in
Visibility 10.0 miles
Clouds Clear
Dew Point 40 °F
Humidity 43%
Rainfall 0.00 in
Snow Depth 1 in , 0 in , 2 in
UV 0 out of 12
Pollen 6.40 out of 12
Ozone Good
Flu Activity Not available.
METAR KO22 020615Z AUTO 04003KT 10SM CLR 12/04 A2999 RMK AO1

More Conditions Fewer Conditions

10-Day Weather Forecast

Almanac

Astronomy

Oct. 01, 2014 Rise Set
Actual Time 6:58 AM PDT 6:45 PM PDT
Civil Twilight 6:31 AM PDT 7:11 PM PDT
Nautical Twilight 6:01 AM PDT 7:41 PM PDT
Astronomical Twilight 5:30 AM PDT 8:12 PM PDT
Moon 1:59 PM PDT (10/1) No Moon Set
Length of Visible Light 12h 39m
Length of Day
11h 47m
Tomorrow will be 2m 26s shorter.
First Quarter, 55% of the Moon is Illuminated
Oct 2
First Quarter
Oct 8
Full
Oct 15
Last Quarter
Oct 23
New
Oct 30
First Quarter

Community

WunderPhotos

Upload Photos

1,758,198 photos uploaded!

WunderBlogs® & News

Nearby

Air Quality

  Air Quality AQ Index Pollutant
Yesterday Good
OZONE
Current Good
OZONE
Wednesday Good
OZONE
Thursday Moderate
OZONE
Friday Moderate
OZONE
Saturday Moderate
OZONE
Sunday Moderate
OZONE
Monday Moderate
OZONE

Snow Depth

Station Depth Elevation
Leavitt Lake 1 in 9400 ft
Blue Lakes 0 in 8000 ft
Burnside Lake 2 in 8139 ft
Heavenly Valley 0 in 8850 ft
Leavitt Meadows 1 in 7200 ft

Earthquake Activity

City Distance Mag. Time & Date
South Dos Palos, California 101 miles 3.0 11:17 AM PDT
2014-10-01
East Foothills, California 78 miles 2.6 3:34 PM PDT
2014-09-30
South Dos Palos, California 101 miles 2.7 3:08 PM PDT
2014-09-30
South Dos Palos, California 101 miles 2.5 9:18 PM PDT
2014-09-29
Minimum magnitude displayed is 2.5.

Coastal Water Temperatures

Place Temperature
No Stations Reporting

Nearby Weather Stations